createdAt,value
2018-02-17T00:01:21.145Z,9.65
2018-02-17T00:03:49.004Z,7.95
2018-02-17T00:06:16.509Z,10.05
2018-02-17T00:08:43.971Z,8.25
2018-02-17T00:11:11.413Z,8.73
2018-02-17T00:13:38.913Z,10.43
2018-02-17T00:16:06.356Z,8.88
2018-02-17T00:18:33.820Z,10.02
2018-02-17T00:21:01.367Z,9.38
2018-02-17T00:23:29.523Z,8.23
2018-02-17T00:25:56.957Z,8.20
2018-02-17T00:28:24.494Z,9.15
2018-02-17T00:30:52.371Z,10.35
2018-02-17T00:33:20.381Z,8.10
2018-02-17T00:35:47.817Z,6.07
2018-02-17T00:38:15.480Z,8.60
2018-02-17T00:40:42.969Z,7.82
2018-02-17T00:43:10.547Z,9.25
2018-02-17T00:45:38.069Z,7.95
2018-02-17T00:48:05.800Z,5.87
2018-02-17T00:50:33.745Z,7.45
2018-02-17T00:53:01.538Z,7.40
2018-02-17T00:55:29.392Z,7.78
2018-02-17T00:57:56.847Z,7.65
2018-02-17T01:00:24.505Z,6.03
2018-02-17T01:02:52.524Z,8.10
2018-02-17T01:05:19.990Z,5.82
2018-02-17T01:07:57.209Z,7.10
2018-02-17T01:10:24.688Z,7.22
2018-02-17T01:12:52.173Z,5.43
2018-02-17T01:15:19.662Z,5.82
2018-02-17T01:17:47.109Z,7.03
2018-02-17T01:20:14.613Z,7.80
2018-02-17T01:22:42.103Z,5.90
2018-02-17T01:25:10.050Z,5.97
2018-02-17T01:27:37.524Z,8.55
2018-02-17T01:30:04.964Z,8.50
2018-02-17T01:32:32.408Z,9.02
2018-02-17T01:34:59.882Z,6.03
2018-02-17T01:37:27.314Z,7.25
2018-02-17T01:39:54.764Z,5.45
2018-02-17T01:42:22.222Z,7.25
2018-02-17T01:44:49.664Z,6.30
2018-02-17T01:47:17.092Z,8.93
2018-02-17T01:49:44.580Z,8.35
2018-02-17T01:52:12.013Z,5.50
2018-02-17T01:54:39.448Z,7.87
2018-02-17T01:57:07.299Z,5.90
2018-02-17T01:59:34.817Z,9.15
2018-02-17T02:02:02.278Z,6.47
2018-02-17T02:04:29.748Z,6.47
2018-02-17T02:06:57.261Z,7.30
2018-02-17T02:09:24.769Z,7.45
2018-02-17T02:11:52.353Z,6.75
2018-02-17T02:14:19.826Z,5.70
2018-02-17T02:16:47.370Z,6.45
2018-02-17T02:19:14.801Z,5.70
2018-02-17T02:21:42.268Z,7.07
2018-02-17T02:24:09.703Z,6.90
2018-02-17T02:26:37.124Z,7.00
2018-02-17T02:29:04.552Z,6.93
2018-02-17T02:31:31.969Z,7.65
2018-02-17T02:33:59.413Z,5.43
2018-02-17T02:36:26.837Z,5.85
2018-02-17T02:38:54.658Z,7.85
2018-02-17T02:41:22.104Z,6.37
2018-02-17T02:43:49.524Z,7.72
2018-02-17T02:46:16.951Z,6.50
2018-02-17T02:48:44.373Z,7.47
2018-02-17T02:51:11.797Z,6.32
2018-02-17T02:53:39.226Z,8.55
2018-02-17T02:56:06.652Z,8.00
2018-02-17T02:58:34.076Z,6.10
2018-02-17T03:01:01.528Z,5.87
2018-02-17T03:03:28.948Z,6.03
2018-02-17T03:05:56.768Z,3.87
2018-02-17T03:08:24.189Z,5.62
2018-02-17T03:10:52.016Z,5.60
2018-02-17T03:13:19.436Z,3.40
2018-02-17T03:15:46.908Z,7.45
2018-02-17T03:18:14.370Z,6.65
2018-02-17T03:20:41.812Z,6.80
2018-02-17T03:23:09.228Z,6.25
2018-02-17T03:25:37.040Z,6.05
2018-02-17T03:28:04.467Z,5.62
2018-02-17T03:30:31.991Z,5.68
2018-02-17T03:32:59.375Z,5.93
2018-02-17T03:35:26.790Z,5.50
2018-02-17T03:37:54.218Z,6.90
2018-02-17T03:40:21.640Z,5.20
2018-02-17T03:42:49.080Z,6.65
2018-02-17T03:45:16.896Z,4.18
2018-02-17T03:47:44.341Z,5.28
2018-02-17T03:50:11.761Z,6.62
2018-02-17T03:52:39.617Z,5.32
2018-02-17T03:55:07.046Z,6.82
2018-02-17T03:57:34.493Z,6.15
2018-02-17T04:00:01.923Z,5.10
2018-02-17T04:02:29.369Z,8.80
2018-02-17T04:04:56.777Z,6.57
2018-02-17T04:07:24.243Z,5.45
2018-02-17T04:09:51.656Z,4.85
2018-02-17T04:12:19.078Z,5.72
2018-02-17T04:14:47.404Z,4.57
2018-02-17T04:17:14.829Z,5.95
2018-02-17T04:19:42.282Z,7.20
2018-02-17T04:22:09.718Z,5.43
2018-02-17T04:24:37.550Z,5.75
2018-02-17T04:27:04.991Z,5.55
2018-02-17T04:29:32.436Z,5.93
2018-02-17T04:31:59.861Z,7.37
2018-02-17T04:34:27.293Z,6.18
2018-02-17T04:36:54.772Z,6.70
2018-02-17T04:39:22.185Z,7.05
2018-02-17T04:41:55.364Z,8.63
2018-02-17T04:44:23.585Z,5.87
2018-02-17T04:50:09.745Z,6.35
2018-02-17T04:52:40.165Z,5.80
2018-02-17T04:55:24.423Z,7.62
2018-02-17T04:57:55.744Z,5.30
2018-02-17T05:00:23.169Z,4.57
2018-02-17T05:03:05.481Z,6.20
2018-02-17T05:05:51.970Z,6.05
2018-02-17T05:08:35.217Z,6.62
2018-02-17T05:11:03.024Z,5.57
2018-02-17T05:13:30.472Z,7.75
2018-02-17T05:16:03.486Z,8.05
2018-02-17T05:18:36.733Z,5.47
2018-02-17T05:21:05.595Z,8.68
2018-02-17T05:23:33.413Z,9.35
2018-02-17T05:26:00.860Z,6.82
2018-02-17T05:28:34.100Z,7.55
2018-02-17T05:31:03.486Z,9.63
2018-02-17T05:33:50.817Z,6.53
2018-02-17T05:36:28.905Z,5.22
2018-02-17T05:38:58.773Z,6.62
2018-02-17T05:41:27.767Z,7.87
2018-02-17T05:43:55.197Z,7.05
2018-02-17T05:49:39.197Z,8.70
2018-02-17T05:52:06.620Z,7.90
2018-02-17T05:54:34.440Z,6.85
2018-02-17T05:57:01.856Z,9.85
2018-02-17T05:59:29.296Z,8.50
2018-02-17T06:01:56.728Z,10.40
2018-02-17T06:04:24.149Z,7.87
2018-02-17T06:06:51.580Z,10.05
2018-02-17T06:09:19.012Z,7.30
2018-02-17T06:11:46.843Z,9.57
2018-02-17T06:14:14.280Z,6.18
2018-02-17T06:16:41.733Z,9.60
2018-02-17T06:19:09.157Z,7.80
2018-02-17T06:21:36.632Z,8.10
2018-02-17T06:24:04.008Z,11.52
2018-02-17T06:26:31.445Z,9.07
2018-02-17T06:28:58.863Z,11.77
2018-02-17T06:31:26.705Z,10.27
2018-02-17T06:33:54.135Z,12.90
2018-02-17T06:36:21.569Z,9.93
2018-02-17T06:38:48.997Z,11.60
2018-02-17T06:41:16.429Z,12.00
2018-02-17T06:43:43.854Z,11.95
2018-02-17T06:46:11.312Z,8.77
2018-02-17T06:48:38.733Z,8.57
2018-02-17T06:51:06.565Z,8.85
2018-02-17T06:53:33.985Z,7.87
2018-02-17T06:56:01.415Z,6.85
2018-02-17T06:58:28.833Z,8.70
2018-02-17T07:00:56.254Z,10.15
2018-02-17T07:03:23.715Z,11.20
2018-02-17T07:05:51.119Z,10.02
2018-02-17T07:08:18.976Z,6.93
2018-02-17T07:10:46.388Z,8.10
2018-02-17T07:13:13.832Z,8.73
2018-02-17T07:15:41.320Z,8.88
2018-02-17T07:18:08.754Z,8.02
2018-02-17T07:20:36.186Z,8.15
2018-02-17T07:23:03.616Z,10.05
2018-02-17T07:25:31.048Z,9.88
2018-02-17T07:27:58.512Z,6.53
2018-02-17T07:30:25.942Z,7.45
2018-02-17T07:32:53.535Z,7.50
2018-02-17T07:35:20.968Z,7.95
2018-02-17T07:37:48.628Z,8.82
2018-02-17T07:40:16.102Z,7.40
2018-02-17T07:42:43.617Z,9.27
2018-02-17T07:45:11.018Z,9.80
2018-02-17T07:47:38.471Z,10.55
2018-02-17T07:50:05.915Z,9.82
2018-02-17T07:52:33.368Z,11.60
2018-02-17T07:55:00.825Z,8.73
2018-02-17T07:57:28.292Z,8.63
2018-02-17T07:59:55.796Z,9.07
2018-02-17T08:02:23.241Z,11.35
2018-02-17T08:04:51.096Z,10.95
2018-02-17T08:07:18.977Z,13.93
2018-02-17T08:09:46.661Z,10.98
2018-02-17T08:12:14.188Z,9.43
2018-02-17T08:14:42.308Z,8.38
2018-02-17T08:17:09.797Z,9.75
2018-02-17T08:19:37.697Z,10.23
2018-02-17T08:22:05.538Z,9.68
2018-02-17T08:24:33.015Z,12.50
2018-02-17T08:27:00.553Z,10.07
2018-02-17T08:29:28.023Z,8.68
2018-02-17T08:31:55.704Z,9.18
2018-02-17T08:34:23.635Z,9.13
2018-02-17T08:36:51.602Z,8.32
2018-02-17T08:39:19.189Z,8.23
2018-02-17T08:41:46.657Z,6.35
2018-02-17T08:44:14.135Z,6.95
2018-02-17T08:46:41.652Z,9.18
2018-02-17T08:49:10.091Z,9.32
2018-02-17T08:51:37.516Z,6.87
2018-02-17T08:54:05.370Z,8.85
2018-02-17T08:56:33.376Z,10.95
2018-02-17T08:59:00.798Z,7.57
2018-02-17T09:01:28.217Z,7.72
2018-02-17T09:03:56.049Z,9.18
2018-02-17T09:06:23.469Z,7.50
2018-02-17T09:08:51.304Z,6.68
2018-02-17T09:11:19.364Z,8.35
2018-02-17T09:13:46.804Z,7.37
2018-02-17T09:16:14.240Z,5.95
2018-02-17T09:18:41.660Z,7.25
2018-02-17T09:21:09.077Z,6.80
2018-02-17T09:23:36.523Z,9.02
2018-02-17T09:26:03.937Z,6.68
2018-02-17T09:28:31.773Z,8.13
2018-02-17T09:30:59.202Z,7.62
2018-02-17T09:33:26.632Z,8.40
2018-02-17T09:35:54.073Z,6.65
2018-02-17T09:38:21.496Z,8.45
2018-02-17T09:40:48.978Z,7.25
2018-02-17T09:43:16.348Z,9.65
2018-02-17T09:45:44.160Z,9.40
2018-02-17T09:48:11.820Z,8.85
2018-02-17T09:50:39.232Z,7.50
2018-02-17T09:53:06.673Z,7.10
2018-02-17T09:55:34.093Z,8.40
2018-02-17T09:58:01.533Z,9.02
2018-02-17T10:00:28.960Z,7.40
2018-02-17T10:02:56.787Z,7.62
2018-02-17T10:05:24.211Z,8.02
2018-02-17T10:07:51.664Z,7.60
2018-02-17T10:10:19.770Z,8.57
2018-02-17T10:12:47.204Z,9.45
2018-02-17T10:15:14.793Z,7.90
2018-02-17T10:17:42.225Z,10.38
2018-02-17T10:20:09.649Z,8.85
2018-02-17T10:22:37.088Z,9.85
2018-02-17T10:25:04.933Z,9.25
2018-02-17T10:27:32.357Z,9.25
2018-02-17T10:29:59.897Z,7.35
2018-02-17T10:32:27.791Z,10.13
2018-02-17T10:34:55.193Z,7.90
2018-02-17T10:37:23.123Z,8.45
2018-02-17T10:39:50.565Z,9.18
2018-02-17T10:42:18.014Z,9.35
2018-02-17T10:44:45.420Z,7.45
2018-02-17T10:47:13.249Z,8.15
2018-02-17T10:49:40.701Z,7.85
2018-02-17T10:52:08.122Z,7.70
2018-02-17T10:54:35.553Z,7.70
2018-02-17T10:57:02.982Z,6.75
2018-02-17T10:59:30.404Z,7.68
2018-02-17T11:01:57.846Z,8.73
2018-02-17T11:04:25.268Z,6.90
2018-02-17T11:06:52.709Z,7.68
2018-02-17T11:09:20.139Z,7.00
2018-02-17T11:11:47.577Z,6.78
2018-02-17T11:14:15.016Z,7.30
2018-02-17T11:16:42.836Z,6.68
2018-02-17T11:19:10.273Z,8.20
2018-02-17T11:21:37.703Z,8.40
2018-02-17T11:24:05.800Z,8.95
2018-02-17T11:26:33.224Z,8.60
2018-02-17T11:29:00.657Z,8.32
2018-02-17T11:31:28.080Z,8.60
2018-02-17T11:33:55.528Z,11.45
2018-02-17T11:36:24.032Z,8.55
2018-02-17T11:38:51.469Z,9.05
2018-02-17T11:41:18.889Z,7.40
2018-02-17T11:43:46.325Z,6.95
2018-02-17T11:46:14.177Z,7.82
2018-02-17T11:48:41.605Z,5.80
2018-02-17T11:51:09.049Z,8.65
2018-02-17T11:53:36.484Z,8.57
2018-02-17T11:56:03.898Z,7.28
2018-02-17T11:58:31.338Z,7.50
2018-02-17T12:00:58.748Z,6.00
2018-02-17T12:03:26.254Z,8.35
2018-02-17T12:05:54.357Z,8.25
2018-02-17T12:08:22.197Z,8.40
2018-02-17T12:10:49.617Z,8.45
2018-02-17T12:13:17.054Z,7.90
2018-02-17T12:15:44.470Z,8.43
2018-02-17T12:18:11.905Z,7.97
2018-02-17T12:20:39.329Z,7.40
2018-02-17T12:23:06.763Z,9.15
2018-02-17T12:25:34.572Z,7.10
2018-02-17T12:28:02.009Z,8.52
2018-02-17T12:30:29.437Z,8.10
2018-02-17T12:32:56.871Z,8.00
2018-02-17T12:35:24.292Z,7.53
2018-02-17T12:37:51.723Z,9.07
2018-02-17T12:40:19.165Z,8.18
2018-02-17T12:42:46.587Z,10.73
2018-02-17T12:45:14.024Z,10.18
2018-02-17T12:47:41.477Z,7.40
2018-02-17T12:50:08.921Z,9.52
2018-02-17T12:52:36.373Z,13.32
2018-02-17T12:55:03.888Z,11.77
2018-02-17T12:57:31.313Z,10.38
2018-02-17T12:59:58.749Z,7.53
2018-02-17T13:02:26.177Z,8.35
2018-02-17T13:04:53.600Z,8.98
2018-02-17T13:07:21.029Z,6.12
2018-02-17T13:09:48.485Z,8.95
2018-02-17T13:12:15.916Z,6.65
2018-02-17T13:14:43.362Z,7.47
2018-02-17T13:17:11.186Z,10.05
2018-02-17T13:19:38.628Z,9.50
2018-02-17T13:22:06.053Z,8.20
2018-02-17T13:24:33.482Z,7.07
2018-02-17T13:27:00.906Z,6.18
2018-02-17T13:29:28.340Z,7.22
2018-02-17T13:31:55.756Z,6.82
2018-02-17T13:34:23.608Z,7.25
2018-02-17T13:36:51.072Z,6.22
2018-02-17T13:39:18.461Z,5.35
2018-02-17T13:41:45.892Z,8.23
2018-02-17T13:44:13.321Z,6.40
2018-02-17T13:46:40.768Z,6.20
2018-02-17T13:49:08.200Z,7.72
2018-02-17T13:51:35.619Z,7.47
2018-02-17T13:54:03.460Z,8.23
2018-02-17T13:56:30.881Z,7.75
2018-02-17T13:58:58.308Z,6.78
2018-02-17T14:01:25.732Z,7.75
2018-02-17T14:03:53.169Z,5.90
2018-02-17T14:06:20.585Z,6.90
2018-02-17T14:08:48.033Z,6.43
2018-02-17T14:11:15.461Z,7.07
2018-02-17T14:13:42.918Z,6.37
2018-02-17T14:16:10.325Z,5.43
2018-02-17T14:18:37.753Z,5.93
2018-02-17T14:21:05.397Z,5.97
2018-02-17T14:23:32.772Z,5.68
2018-02-17T14:26:00.615Z,5.70
2018-02-17T14:28:28.549Z,7.35
2018-02-17T14:30:56.976Z,5.78
2018-02-17T14:33:27.551Z,5.90
2018-02-17T14:35:55.747Z,6.43
2018-02-17T14:38:25.183Z,6.93
2018-02-17T14:43:28.379Z,7.05
2018-02-17T14:45:57.428Z,9.45
2018-02-17T14:48:25.041Z,7.50
2018-02-17T14:50:53.672Z,7.87
2018-02-17T14:53:21.644Z,8.00
2018-02-17T14:55:51.578Z,8.80
2018-02-17T14:58:19.864Z,6.78
2018-02-17T15:00:47.697Z,13.77
2018-02-17T15:03:15.909Z,16.73
2018-02-17T15:05:43.833Z,15.07
2018-02-17T15:08:13.183Z,11.27
2018-02-17T15:10:42.052Z,11.23
2018-02-17T15:13:11.598Z,13.77
2018-02-17T15:15:41.401Z,8.10
2018-02-17T15:18:10.158Z,19.17
2018-02-17T15:20:38.917Z,11.75
2018-02-17T15:23:06.898Z,9.10
2018-02-17T15:25:35.938Z,15.27
2018-02-17T15:28:06.630Z,10.95
2018-02-17T15:30:34.161Z,12.48
2018-02-17T15:33:03.175Z,11.57
2018-02-17T15:35:32.045Z,12.65
2018-02-17T15:38:02.754Z,11.10
2018-02-17T15:40:31.340Z,11.73
2018-02-17T15:42:58.789Z,14.70
2018-02-17T15:45:26.965Z,11.35
2018-02-17T15:47:55.443Z,12.93
2018-02-17T15:50:24.988Z,11.32
2018-02-17T15:52:56.528Z,8.32
2018-02-17T15:55:24.182Z,10.80
2018-02-17T15:57:55.018Z,10.48
2018-02-17T16:00:24.562Z,10.88
2018-02-17T16:02:55.823Z,7.57
2018-02-17T16:05:24.586Z,6.47
2018-02-17T16:07:55.515Z,7.10
2018-02-17T16:10:23.103Z,8.07
2018-02-17T16:12:52.441Z,8.45
2018-02-17T16:15:22.065Z,6.82
2018-02-17T16:17:50.970Z,7.68
2018-02-17T16:20:20.269Z,7.78
2018-02-17T16:22:47.696Z,6.93
2018-02-17T16:25:15.178Z,7.20
2018-02-17T16:27:42.606Z,7.80
2018-02-17T16:30:10.429Z,7.55
2018-02-17T16:32:37.869Z,8.43
2018-02-17T16:35:05.302Z,7.65
2018-02-17T16:37:32.748Z,7.97
2018-02-17T16:40:00.182Z,8.02
2018-02-17T16:42:27.593Z,7.05
2018-02-17T16:44:55.029Z,7.75
2018-02-17T16:47:22.463Z,6.47
2018-02-17T16:49:50.290Z,7.60
2018-02-17T16:52:17.723Z,7.55
2018-02-17T16:54:45.155Z,7.82
2018-02-17T16:57:12.582Z,6.85
2018-02-17T16:59:40.874Z,7.37
2018-02-17T17:02:08.688Z,10.82
2018-02-17T17:04:36.125Z,7.30
2018-02-17T17:07:03.550Z,6.95
2018-02-17T17:09:31.389Z,7.93
2018-02-17T17:11:58.816Z,7.47
2018-02-17T17:14:26.245Z,9.18
2018-02-17T17:16:53.673Z,6.82
2018-02-17T17:19:21.112Z,6.45
2018-02-17T17:21:48.532Z,7.80
2018-02-17T17:24:15.968Z,7.32
2018-02-17T17:26:43.397Z,8.02
2018-02-17T17:29:11.251Z,7.72
2018-02-17T17:31:38.640Z,6.78
2018-02-17T17:34:06.089Z,8.52
2018-02-17T17:36:33.522Z,7.22
2018-02-17T17:39:00.958Z,11.02
2018-02-17T17:41:28.387Z,6.20
2018-02-17T17:43:55.886Z,8.85
2018-02-17T17:46:23.324Z,7.18
2018-02-17T17:48:50.740Z,9.20
2018-02-17T17:51:18.172Z,8.48
2018-02-17T17:53:46.002Z,9.75
2018-02-17T17:56:13.432Z,10.65
2018-02-17T17:58:44.061Z,8.15
2018-02-17T18:01:11.493Z,8.57
2018-02-17T18:03:38.917Z,12.23
2018-02-17T18:06:06.360Z,6.90
2018-02-17T18:08:33.772Z,20.90
2018-02-17T18:11:01.212Z,17.48
2018-02-17T18:13:28.716Z,9.18
2018-02-17T18:15:56.180Z,9.95
2018-02-17T18:18:23.601Z,9.68
2018-02-17T18:20:51.033Z,21.40
2018-02-17T18:23:18.856Z,10.45
2018-02-17T18:25:46.292Z,8.63
2018-02-17T18:28:13.708Z,9.25
2018-02-17T18:30:41.533Z,14.90
2018-02-17T18:33:08.971Z,9.10
2018-02-17T18:35:36.414Z,11.20
2018-02-17T18:38:03.861Z,10.05
2018-02-17T18:40:31.301Z,12.32
2018-02-17T18:42:59.134Z,9.85
2018-02-17T18:45:26.566Z,11.18
2018-02-17T18:47:53.988Z,9.65
2018-02-17T18:50:21.821Z,14.55
2018-02-17T18:52:49.249Z,14.15
2018-02-17T18:55:16.682Z,17.90
2018-02-17T18:57:44.109Z,11.15
2018-02-17T19:00:11.540Z,12.75
2018-02-17T19:02:38.974Z,11.88
2018-02-17T19:05:06.473Z,13.00
2018-02-17T19:07:33.905Z,10.90
2018-02-17T19:10:01.365Z,10.27
2018-02-17T19:12:28.768Z,9.10
2018-02-17T19:14:56.264Z,9.98
2018-02-17T19:17:23.678Z,10.13
2018-02-17T19:19:51.149Z,10.93
2018-02-17T19:22:18.573Z,10.05
2018-02-17T19:24:46.417Z,12.70
2018-02-17T19:27:13.836Z,8.95
2018-02-17T19:29:41.273Z,9.48
2018-02-17T19:32:08.695Z,10.23
2018-02-17T19:34:36.175Z,9.88
2018-02-17T19:37:03.556Z,12.27
2018-02-17T19:39:30.990Z,10.68
2018-02-17T19:41:58.818Z,14.50
2018-02-17T19:44:26.250Z,12.35
2018-02-17T19:46:53.695Z,12.52
2018-02-17T19:49:21.122Z,10.02
2018-02-17T19:51:49.888Z,11.02
2018-02-17T19:54:17.337Z,12.85
2018-02-17T19:56:44.784Z,12.25
2018-02-17T19:59:12.208Z,10.77
2018-02-17T20:01:39.662Z,10.75
2018-02-17T20:04:07.089Z,10.43
2018-02-17T20:06:34.536Z,9.60
2018-02-17T20:09:02.356Z,10.20
2018-02-17T20:11:29.800Z,10.88
2018-02-17T20:13:57.248Z,13.15
2018-02-17T20:16:25.043Z,9.85
2018-02-17T20:18:52.477Z,11.80
2018-02-17T20:21:19.920Z,10.25
2018-02-17T20:23:47.354Z,10.55
2018-02-17T20:26:15.180Z,10.48
2018-02-17T20:28:42.604Z,10.23
2018-02-17T20:31:10.041Z,11.80
2018-02-17T20:33:37.460Z,12.23
2018-02-17T20:36:04.966Z,11.48
2018-02-17T20:38:32.661Z,9.40
2018-02-17T20:41:00.087Z,10.15
2018-02-17T20:43:27.543Z,10.68
2018-02-17T20:45:55.381Z,11.45
2018-02-17T20:48:23.204Z,10.95
2018-02-17T20:50:50.645Z,10.07
2018-02-17T20:53:18.125Z,8.23
2018-02-17T20:55:45.554Z,9.63
2018-02-17T20:58:12.981Z,9.40
2018-02-17T21:00:40.416Z,9.10
2018-02-17T21:03:07.833Z,9.90
2018-02-17T21:05:35.344Z,9.80
2018-02-17T21:08:02.714Z,9.35
2018-02-17T21:10:30.149Z,9.02
2018-02-17T21:12:58.003Z,8.77
2018-02-17T21:15:25.505Z,9.73
2018-02-17T21:17:53.307Z,8.68
2018-02-17T21:20:20.741Z,10.68
2018-02-17T21:22:48.156Z,8.55
2018-02-17T21:25:15.590Z,9.35
2018-02-17T21:27:43.007Z,9.10
2018-02-17T21:30:10.436Z,8.20
2018-02-17T21:32:37.862Z,9.20
2018-02-17T21:35:05.303Z,9.27
2018-02-17T21:37:32.726Z,9.57
2018-02-17T21:40:00.184Z,7.62
2018-02-17T21:42:27.602Z,8.68
2018-02-17T21:44:55.416Z,10.05
2018-02-17T21:47:22.851Z,10.30
2018-02-17T21:49:50.272Z,10.23
2018-02-17T21:52:18.108Z,10.73
2018-02-17T21:54:45.529Z,9.23
2018-02-17T21:57:12.957Z,9.93
2018-02-17T21:59:40.398Z,11.65
2018-02-17T22:02:07.833Z,10.18
2018-02-17T22:04:35.297Z,12.65
2018-02-17T22:07:02.702Z,10.93
2018-02-17T22:09:30.120Z,14.95
2018-02-17T22:11:57.581Z,12.57
2018-02-17T22:14:25.133Z,16.70
2018-02-17T22:16:52.573Z,10.13
2018-02-17T22:19:20.002Z,16.67
2018-02-17T22:21:47.428Z,13.30
2018-02-17T22:24:15.257Z,10.30
2018-02-17T22:26:42.694Z,11.63
2018-02-17T22:29:11.681Z,14.40
2018-02-17T22:31:39.129Z,14.93
2018-02-17T22:34:06.564Z,14.50
2018-02-17T22:36:34.002Z,13.30
2018-02-17T22:39:01.447Z,11.80
2018-02-17T22:41:28.868Z,14.70
2018-02-17T22:43:56.306Z,12.98
2018-02-17T22:46:23.732Z,16.95
2018-02-17T22:48:51.164Z,10.98
2018-02-17T22:51:18.686Z,21.17
2018-02-17T22:53:46.101Z,14.93
2018-02-17T22:56:13.528Z,19.48
2018-02-17T22:58:40.960Z,12.90
2018-02-17T23:01:08.390Z,9.98
2018-02-17T23:03:35.820Z,9.15
2018-02-17T23:06:03.657Z,10.13
2018-02-17T23:08:31.082Z,14.07
2018-02-17T23:10:58.518Z,9.32
2018-02-17T23:13:25.940Z,9.73
2018-02-17T23:15:53.372Z,11.65
2018-02-17T23:18:20.797Z,9.50
2018-02-17T23:20:48.228Z,10.90
2018-02-17T23:23:16.044Z,11.95
2018-02-17T23:25:43.489Z,10.68
2018-02-17T23:28:10.931Z,10.52
2018-02-17T23:30:41.986Z,10.75
2018-02-17T23:33:10.981Z,11.07
2018-02-17T23:35:39.303Z,10.85
2018-02-17T23:38:07.133Z,10.90
2018-02-17T23:40:36.348Z,11.45
2018-02-17T23:43:05.717Z,10.80
2018-02-17T23:45:33.162Z,8.18
2018-02-17T23:50:51.443Z,9.82
2018-02-17T23:53:18.939Z,9.43
2018-02-17T23:55:49.627Z,8.75
2018-02-17T23:58:17.927Z,8.93
